Time;durP1;ratioP1;P1;durP2;ratioP2;P2;SDS_P1;SDS_P2;PMS_P1;PMS_P2;Temp;Humidity;BMP_temperature;BMP_pressure;BME280_temperature;BME280_humidity;BME280_pressure;Samples;Min_cycle;Max_cycle;Signal;HPM_P1;HPM_P2
2021/09/04 00:01:11;;;;;;;15.25;7.65;;;;;;;11.15;100.00;100638.89;715770;1200;116036;-74
2021/09/04 00:16:14;;;;;;;19.75;8.88;;;;;;;10.95;100.00;100631.86;715795;1174;114688;-74
2021/09/04 00:31:16;;;;;;;21.27;9.03;;;;;;;10.77;100.00;100642.95;715664;1177;114176;-74
2021/09/04 00:46:18;;;;;;;12.93;5.78;;;;;;;10.62;100.00;100638.96;715689;1178;114345;-74
2021/09/04 01:01:21;;;;;;;12.03;5.20;;;;;;;10.32;100.00;100648.38;715742;1205;114204;-74
2021/09/04 01:16:36;;;;;;;8.00;4.03;;;;;;;10.24;100.00;100656.01;715331;1177;114197;-73
2021/09/04 01:31:39;;;;;;;14.35;6.65;;;;;;;10.10;100.00;100657.14;715670;1178;114001;-74
2021/09/04 01:46:41;;;;;;;13.03;6.53;;;;;;;9.78;100.00;100658.73;716045;1200;114538;-73
2021/09/04 02:01:44;;;;;;;11.17;4.57;;;;;;;9.62;100.00;100687.07;715729;1200;113839;-74
2021/09/04 02:16:47;;;;;;;19.73;7.83;;;;;;;9.64;100.00;100675.52;715853;1200;113972;-73
2021/09/04 02:31:49;;;;;;;22.18;9.03;;;;;;;9.60;100.00;100686.38;715383;1206;113679;-73
2021/09/04 02:46:51;;;;;;;21.40;8.65;;;;;;;9.70;100.00;100683.86;715690;1174;114489;-75
2021/09/04 03:01:53;;;;;;;31.40;11.80;;;;;;;9.75;100.00;100687.81;715807;1188;113788;-74
2021/09/04 03:16:55;;;;;;;9.60;5.07;;;;;;;9.82;100.00;100686.36;715436;1180;114077;-74
2021/09/04 03:31:57;;;;;;;22.53;9.75;;;;;;;9.71;100.00;100715.17;715744;1202;115188;-74
2021/09/04 03:46:59;;;;;;;17.37;8.97;;;;;;;9.73;100.00;100715.90;715517;1200;113729;-73
2021/09/04 04:02:02;;;;;;;18.40;8.10;;;;;;;9.84;100.00;100728.16;715585;1200;114402;-74
2021/09/04 04:17:05;;;;;;;15.13;7.33;;;;;;;9.91;100.00;100741.61;715568;1200;114331;-74
2021/09/04 04:32:07;;;;;;;21.58;8.80;;;;;;;9.96;100.00;100747.33;715517;1205;114361;-74
2021/09/04 04:47:09;;;;;;;18.95;8.55;;;;;;;10.18;100.00;100766.64;715865;1177;113849;-76
2021/09/04 05:02:11;;;;;;;18.33;8.63;;;;;;;10.48;100.00;100769.47;715630;1200;116658;-76
2021/09/04 05:17:14;;;;;;;18.85;9.20;;;;;;;11.01;100.00;100786.24;715938;1204;114081;-76
2021/09/04 05:32:23;;;;;;;18.00;9.25;;;;;;;11.53;100.00;100782.87;716022;1199;114620;-72
2021/09/04 05:47:25;;;;;;;15.83;8.13;;;;;;;11.79;100.00;100799.88;716572;1205;114403;-71
2021/09/04 06:02:27;;;;;;;21.73;12.38;;;;;;;12.26;100.00;100798.58;715753;1200;114062;-71
2021/09/04 06:17:30;;;;;;;16.90;8.57;;;;;;;13.02;100.00;100797.19;715507;1188;114188;-72
2021/09/04 06:32:32;;;;;;;9.85;5.55;;;;;;;14.04;100.00;100795.75;715284;1202;114854;-72
2021/09/04 06:47:34;;;;;;;9.37;3.60;;;;;;;14.85;100.00;100799.50;715347;1200;115327;-73
2021/09/04 07:02:37;;;;;;;2.40;1.53;;;;;;;15.86;98.51;100814.95;715806;1177;113964;-77
2021/09/04 07:17:40;;;;;;;4.20;1.70;;;;;;;16.97;92.57;100818.49;715493;1202;115049;-71
2021/09/04 07:32:43;;;;;;;3.48;1.35;;;;;;;17.30;86.75;100826.45;715237;1200;114355;-72
2021/09/04 07:47:45;;;;;;;3.30;0.90;;;;;;;17.72;83.74;100851.94;715793;1200;114735;-72
2021/09/04 08:02:47;;;;;;;1.50;0.90;;;;;;;18.69;81.01;100864.27;724664;1202;115250;-71
2021/09/04 08:17:51;;;;;;;2.13;1.10;;;;;;;19.18;78.59;100864.98;715640;1199;115762;-71
2021/09/04 08:32:53;;;;;;;405.00;112.90;;;;;;;20.04;74.41;100860.20;716456;1179;114684;-73
2021/09/04 08:47:56;;;;;;;22.63;5.90;;;;;;;20.60;71.26;100857.02;716525;1201;114670;-73
2021/09/04 09:02:59;;;;;;;8.78;2.60;;;;;;;19.85;70.89;100866.91;715838;1177;115550;-75
2021/09/04 09:18:09;;;;;;;3.90;1.87;;;;;;;21.03;68.58;100858.92;716102;1188;114494;-76
2021/09/04 09:33:16;;;;;;;11.18;4.75;;;;;;;19.66;67.15;100894.83;716093;1200;114991;-75
2021/09/04 09:48:24;;;;;;;57.00;15.90;;;;;;;18.72;67.45;100892.31;715878;1199;115086;-75
2021/09/04 10:03:29;;;;;;;;;;;;;;;18.93;67.39;100889.07;715488;1175;114097;-72
2021/09/04 10:18:33;;;;;;;2.77;1.57;;;;;;;19.68;66.51;100895.48;715665;1179;100426;-71
2021/09/04 10:33:37;;;;;;;52.88;13.03;;;;;;;19.57;66.65;100895.91;715844;1177;114184;-76
2021/09/04 10:48:39;;;;;;;69.35;15.80;;;;;;;19.02;66.65;100898.65;715957;1200;114655;-76
2021/09/04 11:03:42;;;;;;;5.73;2.43;;;;;;;19.43;65.90;100894.88;716334;1205;114660;-76
2021/09/04 11:18:45;;;;;;;125.40;25.80;;;;;;;19.91;65.40;100910.60;715989;1204;114329;-76
2021/09/04 11:33:55;;;;;;;4.00;2.00;;;;;;;20.04;63.34;100899.33;716130;1177;114203;-75
2021/09/04 11:48:59;;;;;;;4.93;1.68;;;;;;;20.27;61.80;100904.55;716325;1200;114701;-75
2021/09/04 12:04:02;;;;;;;5.03;1.80;;;;;;;19.54;62.60;100912.23;716183;1203;115144;-71
2021/09/04 12:19:38;;;;;;;6.58;3.05;;;;;;;19.10;63.49;100911.88;715453;1200;115359;-74
2021/09/04 12:34:57;;;;;;;4.08;2.20;;;;;;;19.60;63.28;100908.88;715765;1203;113920;-74
2021/09/04 12:49:59;;;;;;;2.63;1.40;;;;;;;19.39;63.78;100917.52;716148;1176;113781;-79
2021/09/04 13:05:08;;;;;;;3.30;1.40;;;;;;;18.62;63.45;100916.42;716672;1205;114585;-80
2021/09/04 13:20:13;;;;;;;11.70;6.13;;;;;;;18.34;64.60;100914.20;718359;1171;113721;-82
2021/09/04 13:35:15;;;;;;;5.80;3.25;;;;;;;18.33;66.80;100919.70;720986;1186;114280;-82
2021/09/04 13:50:19;;;;;;;11.78;4.43;;;;;;;18.66;67.25;100912.45;720377;1199;114426;-82
2021/09/04 14:05:21;;;;;;;6.73;3.38;;;;;;;18.73;68.12;100909.92;717995;1203;113905;-86
2021/09/04 14:20:26;;;;;;;5.00;2.73;;;;;;;18.62;68.25;100911.95;717796;1202;113913;-86
2021/09/04 14:35:28;;;;;;;10.90;3.85;;;;;;;18.40;68.91;100908.22;717879;1200;114517;-86
2021/09/04 14:50:30;;;;;;;17.60;7.57;;;;;;;17.98;69.86;100919.13;717640;1185;114220;-82
2021/09/04 15:05:33;;;;;;;10.00;4.98;;;;;;;17.78;71.39;100916.80;716824;1200;114676;-80
2021/09/04 15:20:35;;;;;;;9.90;5.50;;;;;;;17.75;73.42;100917.95;716785;1176;113837;-84
2021/09/04 15:35:38;;;;;;;11.23;5.80;;;;;;;17.51;72.46;100925.91;716563;1200;115175;-78
2021/09/04 15:50:41;;;;;;;37.10;15.30;;;;;;;16.97;74.19;100932.44;716101;1176;113099;-78
2021/09/04 16:05:44;;;;;;;22.88;10.00;;;;;;;16.64;76.86;100938.45;716262;1200;114335;-77
2021/09/04 16:20:46;;;;;;;41.93;21.10;;;;;;;16.34;79.59;100929.20;716185;1200;114251;-77
2021/09/04 16:35:48;;;;;;;37.13;21.53;;;;;;;16.22;83.12;100933.08;716142;1206;115477;-78
2021/09/04 16:50:50;;;;;;;15.27;9.23;;;;;;;16.24;85.42;100952.30;715989;1177;114845;-78
2021/09/04 17:05:53;;;;;;;32.80;15.75;;;;;;;16.09;87.32;100960.80;715776;1176;113052;-79
2021/09/04 17:20:55;;;;;;;80.15;40.75;;;;;;;15.85;88.57;100960.62;715934;1202;114562;-80
2021/09/04 17:35:58;;;;;;;68.53;36.80;;;;;;;15.56;93.28;100967.80;716113;1177;114116;-77
2021/09/04 17:51:02;;;;;;;121.43;55.03;;;;;;;15.25;94.82;100991.92;716001;1180;114180;-77
2021/09/04 18:06:04;;;;;;;73.03;37.73;;;;;;;15.34;98.91;101006.08;716720;1200;114487;-77
2021/09/04 18:21:06;;;;;;;103.20;48.90;;;;;;;15.14;100.00;101018.58;716439;1177;114108;-79
2021/09/04 18:36:09;;;;;;;45.13;24.20;;;;;;;15.07;100.00;101051.84;716549;1200;115224;-79
2021/09/04 18:51:11;;;;;;;37.40;18.13;;;;;;;14.91;100.00;101053.31;716684;1199;115132;-79
2021/09/04 19:06:14;;;;;;;12.35;8.00;;;;;;;14.59;99.95;101058.92;716306;1202;116290;-79
2021/09/04 19:21:16;;;;;;;14.20;8.43;;;;;;;14.47;99.07;101069.63;716035;1200;115190;-79
2021/09/04 19:36:18;;;;;;;16.95;9.98;;;;;;;14.29;98.79;101085.38;715847;1203;115806;-78
2021/09/04 19:51:21;;;;;;;21.00;10.68;;;;;;;13.97;97.62;101077.73;715897;1200;116053;-78
2021/09/04 20:06:23;;;;;;;15.55;8.55;;;;;;;13.69;96.92;101095.20;716080;1200;114898;-78
2021/09/04 20:21:25;;;;;;;26.60;11.83;;;;;;;13.42;97.43;101117.72;717196;1199;115469;-79
2021/09/04 20:51:30;;;;;;;10.30;4.40;;;;;;;12.85;99.79;101147.08;716164;1176;113871;-78
2021/09/04 21:06:32;;;;;;;11.70;5.63;;;;;;;12.70;100.00;101157.11;716290;1200;114071;-78
2021/09/04 21:21:35;;;;;;;20.85;10.43;;;;;;;12.32;100.00;101161.10;716040;1203;115563;-78
2021/09/04 21:36:39;;;;;;;17.15;8.40;;;;;;;12.03;100.00;101171.36;715907;1202;114751;-78
2021/09/04 21:51:41;;;;;;;15.23;6.90;;;;;;;11.63;100.00;101185.84;715968;1200;114820;-78
2021/09/04 22:06:43;;;;;;;11.63;5.87;;;;;;;11.33;100.00;101203.02;716143;1177;114798;-80
2021/09/04 22:21:46;;;;;;;10.95;6.55;;;;;;;11.22;100.00;101229.28;716142;1176;114033;-79
2021/09/04 22:52:09;;;;;;;17.80;7.30;;;;;;;10.82;100.00;101235.70;716432;1200;115857;-79
2021/09/04 23:07:11;;;;;;;12.40;5.87;;;;;;;10.74;100.00;101238.06;716108;1177;114903;-78
2021/09/04 23:22:13;;;;;;;10.65;5.28;;;;;;;10.56;100.00;101240.27;715895;1199;115836;-79
2021/09/04 23:37:15;;;;;;;13.70;7.03;;;;;;;9.88;100.00;101245.87;715964;1202;115649;-78
2021/09/04 23:52:18;;;;;;;15.38;8.10;;;;;;;9.58;100.00;101248.83;715950;1200;114205;-79
